地図

経路データ

SID SEASON NUMBER BASIN SUBBASIN NAME ISO_TIME NATURE LAT LON WMO_WIND WMO_PRES WMO_AGENCY TRACK_TYPE DIST2LAND LANDFALL IFLAG USA_AGENCY USA_ATCF_ID USA_LAT USA_LON USA_RECORD USA_STATUS USA_WIND USA_PRES USA_SSHS USA_R34_NE USA_R34_SE USA_R34_SW USA_R34_NW USA_R50_NE USA_R50_SE USA_R50_SW USA_R50_NW USA_R64_NE USA_R64_SE USA_R64_SW USA_R64_NW USA_POCI USA_ROCI USA_RMW USA_EYE TOKYO_LAT TOKYO_LON TOKYO_GRADE TOKYO_WIND TOKYO_PRES TOKYO_R50_DIR TOKYO_R50_LONG TOKYO_R50_SHORT TOKYO_R30_DIR TOKYO_R30_LONG TOKYO_R30_SHORT TOKYO_LAND CMA_LAT CMA_LON CMA_CAT CMA_WIND CMA_PRES HKO_LAT HKO_LON HKO_CAT HKO_WIND HKO_PRES NEWDELHI_LAT NEWDELHI_LON NEWDELHI_GRADE NEWDELHI_WIND NEWDELHI_PRES NEWDELHI_CI NEWDELHI_DP NEWDELHI_POCI REUNION_LAT REUNION_LON REUNION_TYPE REUNION_WIND REUNION_PRES REUNION_TNUM REUNION_CI REUNION_RMW REUNION_R34_NE REUNION_R34_SE REUNION_R34_SW REUNION_R34_NW REUNION_R50_NE REUNION_R50_SE REUNION_R50_SW REUNION_R50_NW REUNION_R64_NE REUNION_R64_SE REUNION_R64_SW REUNION_R64_NW BOM_LAT BOM_LON BOM_TYPE BOM_WIND BOM_PRES BOM_TNUM BOM_CI BOM_RMW BOM_R34_NE BOM_R34_SE BOM_R34_SW BOM_R34_NW BOM_R50_NE BOM_R50_SE BOM_R50_SW BOM_R50_NW BOM_R64_NE BOM_R64_SE BOM_R64_SW BOM_R64_NW BOM_ROCI BOM_POCI BOM_EYE BOM_POS_METHOD BOM_PRES_METHOD NADI_LAT NADI_LON NADI_CAT NADI_WIND NADI_PRES WELLINGTON_LAT WELLINGTON_LON WELLINGTON_WIND WELLINGTON_PRES DS824_LAT DS824_LON DS824_STAGE DS824_WIND DS824_PRES TD9636_LAT TD9636_LON TD9636_STAGE TD9636_WIND TD9636_PRES TD9635_LAT TD9635_LON TD9635_WIND TD9635_PRES TD9635_ROCI NEUMANN_LAT NEUMANN_LON NEUMANN_CLASS NEUMANN_WIND NEUMANN_PRES MLC_LAT MLC_LON MLC_CLASS MLC_WIND MLC_PRES USA_GUST BOM_GUST BOM_GUST_PER REUNION_GUST REUNION_GUST_PER USA_SEAHGT USA_SEARAD_NE USA_SEARAD_SE USA_SEARAD_SW USA_SEARAD_NW STORM_SPEED STORM_DIR
1950231S18193 1951 64 SP MM NOT_NAMED 1950-08-19 00:00:00 TS -17.7000 -167.400 main 674 674 O________OO___ jtwc_sh SH011951 -17.7000 -167.400 -1 -17.7000 192.600 TC -17.7000 -167.400 2 13 118
1950231S18193 1951 64 SP MM NOT_NAMED 1950-08-19 03:00:00 TS -18.0044 -166.795 main 744 744 P________PP___ SH011951 -17.9980 -166.783 -1 -17.9980 -166.783 TC -18.0173 -166.819 2 13 118
1950231S18193 1951 64 SP MM NOT_NAMED 1950-08-19 06:00:00 TS -18.3090 -166.217 main 815 815 O________OP___ jtwc_sh SH011951 -18.3000 -166.200 -1 -18.3000 193.800 TC -18.3269 -166.250 2 12 120
1950231S18193 1951 64 SP MM NOT_NAMED 1950-08-19 09:00:00 TS -18.6125 -165.687 main 877 877 P________PP___ SH011951 -18.6073 -165.677 -1 -18.6073 -165.677 TC -18.6230 -165.705 2 11 122
1950231S18193 1951 64 SP MM NOT_NAMED 1950-08-19 12:00:00 TS -18.9000 -165.200 main 939 939 O________OO___ jtwc_sh SH011951 -18.9000 -165.200 -1 -18.9000 194.800 TC -18.9000 -165.200 2 11 121
1950231S18193 1951 64 SP MM NOT_NAMED 1950-08-19 15:00:00 TS -19.1567 -164.737 main 1002 1002 P________PP___ SH011951 -19.1574 -164.735 -1 -19.1574 -164.735 TC -19.1554 -164.742 2 10 121
1950231S18193 1951 64 SP MM NOT_NAMED 1950-08-19 18:00:00 TS -19.3996 -164.306 main 1049 1049 O________OP___ jtwc_sh SH011951 -19.4000 -164.300 -1 -19.4000 195.700 TC -19.3989 -164.319 2 9 122
1950231S18193 1951 64 SP MM NOT_NAMED 1950-08-19 21:00:00 TS -19.6425 -163.903 main 1096 1096 P________PP___ SH011951 -19.6423 -163.900 -1 -19.6423 -163.900 TC -19.6430 -163.911 2 9 123
1950231S18193 1951 64 SP MM NOT_NAMED 1950-08-20 00:00:00 TS -19.9000 -163.500 main 1149 1149 O________OO___ jtwc_sh SH011951 -19.9000 -163.500 -1 -19.9000 196.500 TC -19.9000 -163.500 2 10 124
1950231S18193 1951 64 SP MM NOT_NAMED 1950-08-20 03:00:00 TS -20.1902 -163.053 main 1203 1203 P________PP___ SH011951 -20.1924 -163.057 -1 -20.1924 -163.057 TC -20.1856 -163.045 2 10 125
1950231S18193 1951 64 SP MM NOT_NAMED 1950-08-20 06:00:00 TS -20.4950 -162.595 main 1265 1265 O________OP___ jtwc_sh SH011951 -20.5000 -162.600 -1 -20.5000 197.400 TC -20.4850 -162.585 2 11 125
1950231S18193 1951 64 SP MM NOT_NAMED 1950-08-20 09:00:00 TS -20.7972 -162.139 main 1327 1327 P________PP___ SH011951 -20.7999 -162.142 -1 -20.7999 -162.142 TC -20.7919 -162.132 2 10 126
1950231S18193 1951 64 SP MM NOT_NAMED 1950-08-20 12:00:00 TS -21.1000 -161.700 main 1380 1380 O________OO___ jtwc_sh SH011951 -21.1000 -161.700 -1 -21.1000 198.300 TC -21.1000 -161.700 2 10 127
1950231S18193 1951 64 SP MM NOT_NAMED 1950-08-20 15:00:00 TS -21.3931 -161.283 main 1433 1433 P________PP___ SH011951 -21.3999 -161.285 -1 -21.3999 -161.285 TC -21.3795 -161.279 2 10 128
1950231S18193 1951 64 SP MM NOT_NAMED 1950-08-20 18:00:00 TS -21.6875 -160.894 main 1486 1486 O________OP___ jtwc_sh SH011951 -21.7000 -160.900 -1 -21.7000 199.100 TC -21.6624 -160.882 2 9 130
1950231S18193 1951 64 SP MM NOT_NAMED 1950-08-20 21:00:00 TS -21.9830 -160.530 main 1539 1539 P________PP___ SH011951 -21.9924 -160.535 -1 -21.9924 -160.535 TC -21.9640 -160.519 2 9 134
1950231S18193 1951 64 SP MM NOT_NAMED 1950-08-21 00:00:00 TS -22.3000 -160.200 main 1584 1584 O________OO___ jtwc_sh SH011951 -22.3000 -160.200 -1 -22.3000 199.800 TC -22.3000 -160.200 2 9 137
1950231S18193 1951 64 SP MM NOT_NAMED 1950-08-21 03:00:00 TS -22.6348 -159.882 main 1628 1628 P________PP___ SH011951 -22.6200 -159.870 -1 -22.6200 -159.870 TC -22.6644 -159.907 2 9 143
1950231S18193 1951 64 SP MM NOT_NAMED 1950-08-21 06:00:00 TS -23.0224 -159.620 main 1679 1679 O________OP___ jtwc_sh SH011951 -23.0000 -159.600 -1 -23.0000 200.400 TC -23.0672 -159.660 2 9 154
1950231S18193 1951 64 SP MM NOT_NAMED 1950-08-21 09:00:00 TS -23.4788 -159.427 main 1729 1729 P________PP___ SH011951 -23.4624 -159.412 -1 -23.4624 -159.412 TC -23.5114 -159.457 2 10 163
1950231S18193 1951 64 SP MM NOT_NAMED 1950-08-21 12:00:00 TS -24.0000 -159.300 main 1770 1770 O________OO___ jtwc_sh SH011951 -24.0000 -159.300 -1 -24.0000 200.700 TC -24.0000 -159.300 2 11 170
1950231S18193 1951 64 SP MM NOT_NAMED 1950-08-21 15:00:00 TS -24.5763 -159.222 main 1820 1820 P________PP___ SH011951 -24.5925 -159.242 -1 -24.5925 -159.242 TC -24.5439 -159.181 2 12 174
1950231S18193 1951 64 SP MM NOT_NAMED 1950-08-21 18:00:00 TS -25.1758 -159.168 main 1863 1863 O________OP___ jtwc_sh SH011951 -25.2000 -159.200 -1 -25.2000 200.800 TC -25.1273 -159.104 2 12 174
1950231S18193 1951 64 SP MM NOT_NAMED 1950-08-21 21:00:00 TS -25.7507 -159.083 main 1915 1915 P________PP___ SH011951 -25.7650 -159.100 -1 -25.7650 -159.100 TC -25.7221 -159.050 2 11 172
1950231S18193 1951 64 SP MM NOT_NAMED 1950-08-22 00:00:00 TS -26.3000 -159.000 main 1960 1960 O________OO___ jtwc_sh SH011951 -26.3000 -159.000 -1 -26.3000 201.000 TC -26.3000 -159.000 2 11 173
1950231S18193 1951 64 SP MM NOT_NAMED 1950-08-22 03:00:00 TS -26.8122 -158.937 main 2006 2006 P________PP___ SH011951 -26.8075 -158.950 -1 -26.8075 -158.950 TC -26.8215 -158.913 2 10 174
1950231S18193 1951 64 SP MM NOT_NAMED 1950-08-22 06:00:00 TS -27.3075 -158.876 main 2045 2045 O________OP___ jtwc_sh SH011951 -27.3000 -158.900 -1 -27.3000 201.100 TC -27.3225 -158.828 2 10 172
1950231S18193 1951 64 SP MM NOT_NAMED 1950-08-22 09:00:00 TS -27.8041 -158.785 main 2091 2091 P________PP___ SH011951 -27.8000 -158.800 -1 -27.8000 -158.800 TC -27.8122 -158.754 2 10 171
1950231S18193 1951 64 SP MM NOT_NAMED 1950-08-22 12:00:00 TS -28.3000 -158.700 main 2138 2138 O________OO___ jtwc_sh SH011951 -28.3000 -158.700 -1 -28.3000 201.300 TC -28.3000 -158.700 2 10 173
1950231S18193 1951 64 SP MM NOT_NAMED 1950-08-22 15:00:00 TS -28.7978 -158.643 main 2186 2186 P________PP___ SH011951 -28.8000 -158.628 -1 -28.8000 -158.628 TC -28.7934 -158.673 2 10 176
1950231S18193 1951 64 SP MM NOT_NAMED 1950-08-22 18:00:00 TS -29.2975 -158.623 main 2227 2227 O________OP___ jtwc_sh SH011951 -29.3000 -158.600 -1 -29.3000 201.400 TC -29.2925 -158.669 2 10 181
1950231S18193 1951 64 SP MM NOT_NAMED 1950-08-22 21:00:00 TS -29.7985 -158.648 main 2269 2238 P________PP___ SH011951 -29.8000 -158.632 -1 -29.8000 -158.632 TC -29.7953 -158.681 2 10 184
1950231S18193 1951 64 SP MM NOT_NAMED 1950-08-23 00:00:00 TS -30.3000 -158.700 main 2238 O________OO___ jtwc_sh SH011951 -30.3000 -158.700 -1 -30.3000 201.300 TC -30.3000 -158.700 2 10 185

デジタル台風データ・検索

IBTrACS Databaseについて

本データベースは、米国NOAAが公開する1842年以降の世界の熱帯低気圧のベストトラックデータアーカイブInternational Best Track Archive for Climate Stewardship (IBTrACS)を、ウェブで閲覧しやすい形式に変換したものです。

最終更新日:2021-12-06